Time;durP1;ratioP1;P1;durP2;ratioP2;P2;SDS_P1;SDS_P2;PMS_P1;PMS_P2;Temp;Humidity;BMP_temperature;BMP_pressure;BME280_temperature;BME280_humidity;BME280_pressure;Samples;Min_cycle;Max_cycle;Signal;HPM_P1;HPM_P2
2021/11/08 00:00:51;;;;;;;16.80;6.80;;;;;;;5.26;77.14;99088.86;461428;1190;197346;-73
2021/11/08 00:10:55;;;;;;;9.90;6.40;;;;;;;5.30;77.29;99090.20;464341;1190;143740;-73
2021/11/08 00:21:00;;;;;;;7.20;6.30;;;;;;;5.33;77.29;99090.54;462785;1190;141467;-74
2021/11/08 00:31:04;;;;;;;7.60;6.80;;;;;;;5.39;77.22;99106.42;462640;1190;140607;-75
2021/11/08 00:41:07;;;;;;;7.70;4.90;;;;;;;5.38;77.42;99110.96;462747;1190;141031;-63
2021/11/08 00:51:11;;;;;;;5.60;4.60;;;;;;;5.41;77.35;99116.39;461543;1190;140369;-62
2021/11/08 01:01:19;;;;;;;5.00;4.40;;;;;;;5.49;77.41;99115.48;462043;1190;141227;-64
2021/11/08 01:11:22;;;;;;;9.40;5.40;;;;;;;5.53;77.49;99113.00;478387;1189;140394;-65
2021/11/08 01:21:25;;;;;;;8.60;4.90;;;;;;;5.56;77.29;99115.96;476141;1189;141152;-65
2021/11/08 01:31:29;;;;;;;9.30;5.20;;;;;;;5.59;77.32;99121.73;475495;1189;140168;-64
2021/11/08 01:41:32;;;;;;;7.00;4.60;;;;;;;5.47;77.26;99114.85;475726;1190;141093;-64
2021/11/08 01:51:36;;;;;;;4.80;3.50;;;;;;;5.42;77.51;99119.26;477775;1190;140793;-63
2021/11/08 02:01:40;;;;;;;8.30;4.70;;;;;;;5.51;77.59;99114.83;477865;1190;140581;-64
2021/11/08 02:11:44;;;;;;;7.10;4.40;;;;;;;5.59;77.46;99127.08;476737;1190;141024;-65
2021/11/08 02:21:48;;;;;;;6.10;3.80;;;;;;;5.69;77.49;99142.77;461577;1190;140066;-63
2021/11/08 02:31:56;;;;;;;4.80;4.40;;;;;;;5.76;77.26;99149.52;476356;1189;140694;-65
2021/11/08 02:41:59;;;;;;;5.60;3.80;;;;;;;5.82;77.11;99153.94;476208;1189;141781;-65
2021/11/08 02:52:04;;;;;;;4.40;3.50;;;;;;;5.85;77.03;99162.11;478207;1189;140868;-64
2021/11/08 03:02:09;;;;;;;6.10;3.90;;;;;;;5.89;76.91;99170.04;467967;1189;140095;-64
2021/11/08 03:12:14;;;;;;;9.20;3.80;;;;;;;5.91;76.85;99179.50;467544;1189;140705;-63
2021/11/08 03:22:21;;;;;;;7.30;3.90;;;;;;;5.89;76.71;99186.02;478385;1189;140904;-64
2021/11/08 03:32:25;;;;;;;7.60;3.40;;;;;;;5.87;76.93;99190.63;478071;1189;141787;-64
2021/11/08 03:42:28;;;;;;;3.20;2.50;;;;;;;5.82;77.03;99196.09;466707;1190;141368;-64
2021/11/08 03:52:32;;;;;;;4.60;3.00;;;;;;;5.76;77.05;99199.56;477838;1190;141376;-64
2021/11/08 04:02:35;;;;;;;7.40;3.30;;;;;;;5.72;77.13;99205.10;477109;1189;141343;-64
2021/11/08 04:12:39;;;;;;;6.20;2.90;;;;;;;5.69;77.09;99207.89;470160;1190;140923;-64
2021/11/08 04:22:42;;;;;;;5.60;3.20;;;;;;;5.66;77.16;99208.59;476734;1190;141477;-65
2021/11/08 04:33:05;;;;;;;6.60;3.20;;;;;;;5.64;77.18;99216.13;477093;1190;143805;-64
2021/11/08 04:43:13;;;;;;;6.30;2.80;;;;;;;5.65;77.08;99225.65;477769;1190;140901;-64
2021/11/08 04:53:29;;;;;;;3.10;2.50;;;;;;;5.66;76.96;99234.62;469432;1189;140991;-65
2021/11/08 05:34:48;;;;;;;7.30;3.20;;;;;;;5.70;76.83;99263.93;477949;1189;140658;-65
2021/11/08 05:44:53;;;;;;;6.40;2.90;;;;;;;5.75;76.72;99272.92;477077;1190;141487;-63
2021/11/08 05:54:56;;;;;;;6.40;2.80;;;;;;;5.80;76.72;99280.16;478033;1189;141238;-64
2021/11/08 06:56:53;;;;;;;8.20;4.40;;;;;;;5.70;78.45;99367.44;476921;1183;162848;-63
2021/11/08 07:06:57;;;;;;;10.60;5.00;;;;;;;5.64;78.89;99376.20;477777;1190;141875;-64
2021/11/08 07:17:00;;;;;;;10.30;4.40;;;;;;;5.61;79.30;99386.62;470150;1190;140827;-62
2021/11/08 07:27:04;;;;;;;10.50;4.70;;;;;;;5.59;79.62;99392.23;468753;1190;141286;-64
2021/11/08 07:37:08;;;;;;;7.10;3.60;;;;;;;5.61;79.71;99410.73;477896;1183;141379;-64
2021/11/08 07:47:12;;;;;;;6.20;4.50;;;;;;;5.67;79.61;99424.40;476140;1188;140570;-64
2021/11/08 07:57:17;;;;;;;14.40;4.70;;;;;;;5.74;79.55;99433.42;476663;1190;140424;-64
2021/11/08 08:07:20;;;;;;;8.60;5.10;;;;;;;5.86;79.42;99446.60;474935;1189;140816;-64
2021/11/08 08:17:23;;;;;;;5.80;5.00;;;;;;;5.90;79.44;99456.13;473113;1190;141248;-64
2021/11/08 08:27:27;;;;;;;5.60;4.40;;;;;;;5.94;79.55;99466.89;467413;1189;140105;-68
2021/11/08 08:37:31;;;;;;;7.40;5.00;;;;;;;5.97;79.68;99471.30;465710;1178;140052;-65
2021/11/08 08:47:34;;;;;;;6.90;5.30;;;;;;;6.07;79.90;99481.12;468722;1190;140001;-68
2021/11/08 08:57:38;;;;;;;6.80;6.00;;;;;;;6.10;80.11;99492.61;462368;1190;140257;-66
2021/11/08 09:07:42;;;;;;;7.60;6.90;;;;;;;6.16;80.17;99499.61;471532;1190;140685;-66
2021/11/08 09:17:46;;;;;;;7.40;6.00;;;;;;;6.25;80.31;99507.55;466606;1190;140072;-65
2021/11/08 09:27:52;;;;;;;8.20;5.80;;;;;;;6.34;80.23;99513.57;477880;1190;140319;-66
2021/11/08 09:37:57;;;;;;;7.90;5.90;;;;;;;6.36;80.41;99526.20;472014;1190;139970;-67
2021/11/08 09:48:01;;;;;;;6.20;5.20;;;;;;;6.33;80.39;99534.45;477012;1190;140928;-69
2021/11/08 09:58:06;;;;;;;6.60;6.00;;;;;;;6.20;80.59;99541.17;477909;1190;140478;-60
2021/11/08 10:08:10;;;;;;;6.30;5.20;;;;;;;6.22;81.01;99546.61;463909;1190;10001419;-63
2021/11/08 10:18:17;;;;;;;7.40;6.80;;;;;;;6.28;81.09;99554.35;471996;1190;140842;-61
2021/11/08 10:28:23;;;;;;;8.40;7.20;;;;;;;6.36;81.24;99559.55;473274;1190;141238;-62
2021/11/08 10:38:29;;;;;;;10.10;8.10;;;;;;;6.57;81.22;99568.98;473079;1189;141656;-59
2021/11/08 10:48:39;;;;;;;7.70;6.90;;;;;;;6.62;81.03;99570.48;467886;1190;139979;-61
2021/11/08 10:58:47;;;;;;;7.70;6.80;;;;;;;6.53;81.07;99575.42;477891;1190;140848;-61
2021/11/08 11:08:51;;;;;;;;;;;;;;;6.61;81.24;99577.02;477340;1189;158768;-61
2021/11/08 11:19:00;;;;;;;11.00;8.30;;;;;;;6.66;81.19;99579.71;467474;1190;126702;-61
2021/11/08 11:29:07;;;;;;;9.10;7.80;;;;;;;6.78;81.08;99583.46;470824;1190;140420;-64
2021/11/08 11:39:13;;;;;;;9.20;8.00;;;;;;;6.71;80.93;99586.09;474082;1190;139960;-64
2021/11/08 11:49:17;;;;;;;8.40;7.40;;;;;;;6.67;81.22;99592.20;468688;1190;140071;-63
2021/11/08 11:59:20;;;;;;;10.00;8.50;;;;;;;6.80;81.30;99602.70;478627;1189;140229;-64
2021/11/08 12:09:24;;;;;;;10.00;9.00;;;;;;;6.78;80.95;99611.00;462664;1190;140541;-64
2021/11/08 12:19:31;;;;;;;8.80;7.90;;;;;;;6.63;81.24;99613.08;477902;1190;140725;-64
2021/11/08 12:29:45;;;;;;;10.90;8.20;;;;;;;6.59;81.44;99615.68;477036;1190;140786;-67
2021/11/08 12:39:57;;;;;;;9.40;8.40;;;;;;;6.61;81.57;99617.87;473722;1189;140737;-66
2021/11/08 12:50:00;;;;;;;8.40;7.60;;;;;;;6.81;81.64;99617.61;479110;1188;139980;-66
2021/11/08 13:00:17;;;;;;;9.10;8.00;;;;;;;6.97;81.47;99622.41;478210;1188;141760;-66
2021/11/08 13:10:24;;;;;;;8.00;7.20;;;;;;;7.06;81.04;99632.80;479065;1188;140935;-66
2021/11/08 13:20:30;;;;;;;11.50;9.10;;;;;;;6.94;81.11;99637.73;479102;1188;140016;-68
2021/11/08 13:30:39;;;;;;;8.10;7.20;;;;;;;6.89;81.11;99641.08;479148;1189;140210;-62
2021/11/08 13:40:45;;;;;;;8.90;8.00;;;;;;;6.91;80.90;99636.97;479133;1188;140266;-69
2021/11/08 13:50:49;;;;;;;7.80;6.70;;;;;;;6.92;81.10;99641.63;478244;1188;140073;-69
2021/11/08 14:00:58;;;;;;;7.80;7.00;;;;;;;6.84;80.98;99652.30;467011;1189;140063;-67
2021/11/08 14:11:01;;;;;;;8.90;7.70;;;;;;;6.74;81.08;99653.44;476169;1189;140088;-67
2021/11/08 14:21:11;;;;;;;9.30;8.40;;;;;;;6.68;81.31;99670.77;471856;1190;140159;-62
2021/11/08 14:31:27;;;;;;;10.40;9.00;;;;;;;6.64;81.55;99671.31;472784;1189;140822;-62
2021/11/08 14:41:32;;;;;;;10.80;9.70;;;;;;;6.56;81.68;99671.48;477501;1189;159141;-62
2021/11/08 14:51:36;;;;;;;11.50;10.40;;;;;;;6.56;81.85;99682.78;464240;1190;140198;-59
2021/11/08 15:01:42;;;;;;;12.50;10.10;;;;;;;6.55;82.01;99690.66;477762;1190;140759;-63
2021/11/08 15:11:46;;;;;;;13.10;11.20;;;;;;;6.58;81.99;99699.73;465895;1190;144103;-62
2021/11/08 15:21:52;;;;;;;10.50;9.50;;;;;;;6.59;81.99;99710.14;473130;1190;140541;-62
2021/11/08 15:31:58;;;;;;;11.10;9.80;;;;;;;6.60;82.11;99716.55;477691;1190;140641;-64
2021/11/08 15:42:10;;;;;;;11.90;10.70;;;;;;;6.59;82.07;99737.61;453014;1189;20002206;-63
2021/11/08 15:52:14;;;;;;;10.90;9.80;;;;;;;6.64;82.04;99742.45;463886;1190;140423;-63
2021/11/08 16:02:19;;;;;;;11.80;10.60;;;;;;;6.63;82.13;99745.80;468879;1190;140864;-63
2021/11/08 16:13:00;;;;;;;13.30;11.20;;;;;;;6.60;82.23;99757.73;414249;1344;10002631;-63
2021/11/08 16:23:07;;;;;;;15.20;12.50;;;;;;;6.60;82.09;99761.06;427987;1318;140711;-64
2021/11/08 16:33:18;;;;;;;13.70;12.30;;;;;;;6.59;82.25;99766.67;431707;1320;144419;-63
2021/11/08 16:43:25;;;;;;;14.50;11.90;;;;;;;6.57;82.50;99782.40;427974;1321;143042;-63
2021/11/08 16:53:33;;;;;;;13.60;10.70;;;;;;;6.61;82.44;99799.48;431435;1319;142159;-58
2021/11/08 17:03:41;;;;;;;14.20;12.40;;;;;;;6.67;82.39;99806.66;429056;1318;141708;-64
2021/11/08 17:13:48;;;;;;;11.40;10.20;;;;;;;6.65;82.34;99810.43;424548;1321;142552;-63
2021/11/08 17:23:54;;;;;;;15.80;10.30;;;;;;;6.58;82.25;99815.93;413871;1320;141651;-64
2021/11/08 17:34:00;;;;;;;12.00;10.80;;;;;;;6.54;82.70;99828.64;416694;1320;141383;-63
2021/11/08 17:44:06;;;;;;;12.00;10.70;;;;;;;6.52;82.84;99837.27;431495;1320;141556;-64
2021/11/08 17:54:12;;;;;;;11.60;9.80;;;;;;;6.54;82.92;99847.24;429303;1321;140658;-63
2021/11/08 18:04:18;;;;;;;16.20;11.70;;;;;;;6.57;83.02;99858.23;429828;1320;140418;-63
2021/11/08 18:14:24;;;;;;;12.40;10.60;;;;;;;6.57;82.99;99868.67;423577;1319;141998;-62
2021/11/08 18:24:32;;;;;;;13.30;11.30;;;;;;;6.54;82.95;99874.21;417643;1320;140863;-63
2021/11/08 18:34:39;;;;;;;17.00;11.60;;;;;;;6.51;83.28;99880.59;429014;1321;140803;-63
2021/11/08 18:44:46;;;;;;;11.50;10.30;;;;;;;6.55;83.29;99892.44;430499;1320;142738;-66
2021/11/08 18:54:51;;;;;;;13.20;11.00;;;;;;;6.63;83.26;99896.13;431301;1320;140880;-63
2021/11/08 19:05:07;;;;;;;12.80;11.50;;;;;;;6.71;83.23;99905.50;430256;1320;141051;-63
2021/11/08 19:15:16;;;;;;;12.10;10.80;;;;;;;6.75;83.30;99911.59;429493;1320;142759;-63
2021/11/08 19:25:24;;;;;;;14.20;12.60;;;;;;;6.84;83.18;99919.05;431834;1320;142046;-63
2021/11/08 19:45:55;;;;;;;16.20;14.00;;;;;;;6.94;83.00;99947.15;417588;1316;197628;-62
2021/11/08 19:56:01;;;;;;;15.80;13.40;;;;;;;7.02;82.76;99955.15;433529;1317;142052;-63
2021/11/08 20:06:07;;;;;;;15.80;14.10;;;;;;;7.07;82.82;99955.48;432512;1315;143609;-63
2021/11/08 20:16:14;;;;;;;18.20;16.20;;;;;;;7.12;82.63;99963.96;433161;1316;141248;-64
2021/11/08 20:26:20;;;;;;;17.20;15.30;;;;;;;7.17;82.56;99969.31;433411;1315;142230;-64
2021/11/08 20:47:02;;;;;;;15.70;13.50;;;;;;;7.08;82.53;99982.07;429542;1317;142569;-64
2021/11/08 20:57:26;;;;;;;13.00;11.60;;;;;;;7.07;82.48;99988.55;432215;1315;143290;-61
2021/11/08 21:07:56;;;;;;;14.10;12.10;;;;;;;6.95;82.45;99995.14;418724;1316;10002701;-59
2021/11/08 21:18:01;;;;;;;13.60;12.20;;;;;;;6.93;82.63;100005.30;431156;1316;141225;-59
2021/11/08 21:28:15;;;;;;;13.00;11.50;;;;;;;6.95;82.64;100005.22;433483;1316;141586;-59
2021/11/08 21:38:23;;;;;;;10.60;8.80;;;;;;;6.96;82.88;100011.84;433376;1316;141740;-60
2021/11/08 21:48:29;;;;;;;11.50;10.00;;;;;;;6.97;83.01;100014.55;430534;1316;141676;-60
2021/11/08 21:58:36;;;;;;;10.30;9.10;;;;;;;6.99;82.80;100024.05;433162;1315;142463;-59
2021/11/08 22:08:42;;;;;;;11.50;10.20;;;;;;;7.04;83.18;100030.63;432180;1315;142677;-63
2021/11/08 22:18:53;;;;;;;10.60;9.40;;;;;;;7.07;82.95;100040.59;418577;1315;141855;-59
2021/11/08 22:28:59;;;;;;;10.20;9.10;;;;;;;7.07;82.88;100042.87;433313;1315;142265;-59
2021/11/08 22:39:05;;;;;;;11.60;9.60;;;;;;;7.07;82.84;100053.47;422845;1315;141582;-61
2021/11/08 22:49:12;;;;;;;13.40;10.00;;;;;;;7.03;83.02;100063.73;418945;1317;142196;-59
2021/11/08 22:59:18;;;;;;;13.60;12.20;;;;;;;7.06;83.15;100070.45;418299;1315;141769;-61
2021/11/08 23:09:24;;;;;;;12.00;10.80;;;;;;;7.07;83.13;100080.98;416825;1316;141601;-61
2021/11/08 23:19:30;;;;;;;13.00;11.60;;;;;;;7.03;83.23;100090.19;418026;1316;142294;-60
2021/11/08 23:29:36;;;;;;;13.40;11.20;;;;;;;7.01;83.39;100099.53;416499;1316;140563;-61
2021/11/08 23:39:44;;;;;;;12.40;11.10;;;;;;;7.05;83.54;100104.59;418513;1316;141684;-61
2021/11/08 23:49:50;;;;;;;6.90;5.40;;;;;;;7.05;83.43;100127.39;417177;1316;141175;-61
2021/11/08 23:59:56;;;;;;;3.00;2.50;;;;;;;6.68;82.42;100141.20;416951;1315;141011;-60
